sensor_id;sensor_type;location;lat;lon;timestamp;P1;durP1;ratioP1;P2;durP2;ratioP2
65206;SDS011;58477;48.072;11.970;2023-02-15T00:01:25;26.95;;;11.73;;
65206;SDS011;58477;48.072;11.970;2023-02-15T00:03:50;49.92;;;11.68;;
65206;SDS011;58477;48.072;11.970;2023-02-15T00:06:16;37.03;;;10.90;;
65206;SDS011;58477;48.072;11.970;2023-02-15T00:08:41;94.63;;;12.20;;
65206;SDS011;58477;48.072;11.970;2023-02-15T00:11:11;66.72;;;12.10;;
65206;SDS011;58477;48.072;11.970;2023-02-15T00:13:39;49.22;;;11.65;;
65206;SDS011;58477;48.072;11.970;2023-02-15T00:16:09;67.10;;;11.95;;
65206;SDS011;58477;48.072;11.970;2023-02-15T00:18:35;75.20;;;12.30;;
65206;SDS011;58477;48.072;11.970;2023-02-15T00:21:05;50.13;;;11.60;;
65206;SDS011;58477;48.072;11.970;2023-02-15T00:23:32;75.60;;;11.70;;
65206;SDS011;58477;48.072;11.970;2023-02-15T00:26:05;55.40;;;11.77;;
65206;SDS011;58477;48.072;11.970;2023-02-15T00:28:34;32.47;;;11.57;;
65206;SDS011;58477;48.072;11.970;2023-02-15T00:33:28;78.82;;;11.60;;
65206;SDS011;58477;48.072;11.970;2023-02-15T00:35:57;66.10;;;12.73;;
65206;SDS011;58477;48.072;11.970;2023-02-15T00:38:23;33.63;;;11.50;;
65206;SDS011;58477;48.072;11.970;2023-02-15T00:40:53;54.03;;;11.88;;
65206;SDS011;58477;48.072;11.970;2023-02-15T00:43:22;60.33;;;13.18;;
65206;SDS011;58477;48.072;11.970;2023-02-15T00:45:47;51.90;;;13.27;;
65206;SDS011;58477;48.072;11.970;2023-02-15T00:48:13;73.20;;;13.27;;
65206;SDS011;58477;48.072;11.970;2023-02-15T00:50:38;40.08;;;12.32;;
65206;SDS011;58477;48.072;11.970;2023-02-15T00:53:04;36.13;;;11.80;;
65206;SDS011;58477;48.072;11.970;2023-02-15T00:55:30;36.53;;;11.30;;
65206;SDS011;58477;48.072;11.970;2023-02-15T00:57:55;35.05;;;12.13;;
65206;SDS011;58477;48.072;11.970;2023-02-15T01:00:21;70.45;;;13.98;;
65206;SDS011;58477;48.072;11.970;2023-02-15T01:02:46;56.85;;;12.50;;
65206;SDS011;58477;48.072;11.970;2023-02-15T01:05:13;58.42;;;12.98;;
65206;SDS011;58477;48.072;11.970;2023-02-15T01:07:38;47.38;;;13.32;;
65206;SDS011;58477;48.072;11.970;2023-02-15T01:10:05;102.35;;;14.70;;
65206;SDS011;58477;48.072;11.970;2023-02-15T01:12:32;52.13;;;12.82;;
65206;SDS011;58477;48.072;11.970;2023-02-15T01:14:57;44.58;;;13.93;;
65206;SDS011;58477;48.072;11.970;2023-02-15T01:17:24;50.30;;;12.90;;
65206;SDS011;58477;48.072;11.970;2023-02-15T01:19:49;76.13;;;14.48;;
65206;SDS011;58477;48.072;11.970;2023-02-15T01:22:18;36.30;;;12.60;;
65206;SDS011;58477;48.072;11.970;2023-02-15T01:24:43;56.80;;;13.55;;
65206;SDS011;58477;48.072;11.970;2023-02-15T01:27:09;46.63;;;12.75;;
65206;SDS011;58477;48.072;11.970;2023-02-15T01:29:34;42.00;;;13.95;;
65206;SDS011;58477;48.072;11.970;2023-02-15T01:32:00;57.88;;;13.05;;
65206;SDS011;58477;48.072;11.970;2023-02-15T01:34:25;37.88;;;12.80;;
65206;SDS011;58477;48.072;11.970;2023-02-15T01:36:50;35.40;;;12.93;;
65206;SDS011;58477;48.072;11.970;2023-02-15T01:39:16;40.92;;;13.43;;
65206;SDS011;58477;48.072;11.970;2023-02-15T01:41:41;38.63;;;12.60;;
65206;SDS011;58477;48.072;11.970;2023-02-15T01:47:14;35.95;;;12.00;;
65206;SDS011;58477;48.072;11.970;2023-02-15T01:49:43;31.27;;;12.55;;
65206;SDS011;58477;48.072;11.970;2023-02-15T01:52:12;27.83;;;13.27;;
65206;SDS011;58477;48.072;11.970;2023-02-15T01:54:42;30.02;;;13.63;;
65206;SDS011;58477;48.072;11.970;2023-02-15T01:57:13;47.28;;;14.57;;
65206;SDS011;58477;48.072;11.970;2023-02-15T01:59:43;119.97;;;16.08;;
65206;SDS011;58477;48.072;11.970;2023-02-15T02:02:14;46.92;;;13.02;;
65206;SDS011;58477;48.072;11.970;2023-02-15T02:04:49;39.58;;;13.93;;
65206;SDS011;58477;48.072;11.970;2023-02-15T02:07:19;45.72;;;13.25;;
65206;SDS011;58477;48.072;11.970;2023-02-15T02:09:46;54.63;;;13.88;;
65206;SDS011;58477;48.072;11.970;2023-02-15T02:12:13;35.30;;;12.63;;
65206;SDS011;58477;48.072;11.970;2023-02-15T02:14:39;29.45;;;12.35;;
65206;SDS011;58477;48.072;11.970;2023-02-15T02:17:07;34.35;;;13.55;;
65206;SDS011;58477;48.072;11.970;2023-02-15T02:27:56;51.03;;;13.43;;
65206;SDS011;58477;48.072;11.970;2023-02-15T02:44:48;60.28;;;13.68;;
65206;SDS011;58477;48.072;11.970;2023-02-15T02:49:47;44.55;;;14.13;;
65206;SDS011;58477;48.072;11.970;2023-02-15T02:55:01;33.88;;;11.63;;
65206;SDS011;58477;48.072;11.970;2023-02-15T02:57:29;74.80;;;12.68;;
65206;SDS011;58477;48.072;11.970;2023-02-15T02:59:57;109.75;;;14.20;;
65206;SDS011;58477;48.072;11.970;2023-02-15T03:02:29;34.08;;;12.93;;
65206;SDS011;58477;48.072;11.970;2023-02-15T03:05:00;32.55;;;12.18;;
65206;SDS011;58477;48.072;11.970;2023-02-15T03:09:59;35.80;;;10.63;;
65206;SDS011;58477;48.072;11.970;2023-02-15T03:15:07;36.08;;;12.10;;
65206;SDS011;58477;48.072;11.970;2023-02-15T03:17:38;45.38;;;12.95;;
65206;SDS011;58477;48.072;11.970;2023-02-15T03:20:07;41.55;;;11.65;;
65206;SDS011;58477;48.072;11.970;2023-02-15T03:22:37;43.22;;;12.60;;
65206;SDS011;58477;48.072;11.970;2023-02-15T03:25:15;50.47;;;12.75;;
65206;SDS011;58477;48.072;11.970;2023-02-15T03:27:44;63.58;;;13.38;;
65206;SDS011;58477;48.072;11.970;2023-02-15T03:30:12;30.52;;;12.40;;
65206;SDS011;58477;48.072;11.970;2023-02-15T03:32:43;35.35;;;12.30;;
65206;SDS011;58477;48.072;11.970;2023-02-15T03:35:11;24.58;;;12.50;;
65206;SDS011;58477;48.072;11.970;2023-02-15T03:37:55;54.38;;;13.32;;
65206;SDS011;58477;48.072;11.970;2023-02-15T03:40:57;119.72;;;15.98;;
65206;SDS011;58477;48.072;11.970;2023-02-15T03:46:28;24.88;;;11.65;;
65206;SDS011;58477;48.072;11.970;2023-02-15T03:49:10;30.10;;;10.93;;
65206;SDS011;58477;48.072;11.970;2023-02-15T03:51:42;31.95;;;12.95;;
65206;SDS011;58477;48.072;11.970;2023-02-15T03:54:11;41.40;;;8.70;;
65206;SDS011;58477;48.072;11.970;2023-02-15T03:56:40;231.93;;;14.98;;
65206;SDS011;58477;48.072;11.970;2023-02-15T03:59:27;72.38;;;6.88;;
65206;SDS011;58477;48.072;11.970;2023-02-15T04:02:14;60.03;;;10.18;;
65206;SDS011;58477;48.072;11.970;2023-02-15T04:04:48;25.92;;;10.38;;
65206;SDS011;58477;48.072;11.970;2023-02-15T04:07:13;42.42;;;11.20;;
65206;SDS011;58477;48.072;11.970;2023-02-15T04:09:39;53.03;;;10.50;;
65206;SDS011;58477;48.072;11.970;2023-02-15T04:12:23;36.53;;;10.75;;
65206;SDS011;58477;48.072;11.970;2023-02-15T04:14:49;33.28;;;10.20;;
65206;SDS011;58477;48.072;11.970;2023-02-15T04:17:32;26.27;;;7.40;;
65206;SDS011;58477;48.072;11.970;2023-02-15T04:19:58;29.15;;;7.72;;
65206;SDS011;58477;48.072;11.970;2023-02-15T04:22:42;38.83;;;9.77;;
65206;SDS011;58477;48.072;11.970;2023-02-15T04:25:26;46.42;;;10.60;;
65206;SDS011;58477;48.072;11.970;2023-02-15T04:27:53;37.38;;;10.57;;
65206;SDS011;58477;48.072;11.970;2023-02-15T04:30:20;45.53;;;8.98;;
65206;SDS011;58477;48.072;11.970;2023-02-15T04:32:49;60.38;;;8.55;;
65206;SDS011;58477;48.072;11.970;2023-02-15T04:35:14;74.65;;;10.75;;
65206;SDS011;58477;48.072;11.970;2023-02-15T04:37:40;44.72;;;10.20;;
65206;SDS011;58477;48.072;11.970;2023-02-15T04:40:07;158.35;;;11.98;;
65206;SDS011;58477;48.072;11.970;2023-02-15T04:42:34;36.70;;;10.68;;
65206;SDS011;58477;48.072;11.970;2023-02-15T04:45:00;165.63;;;12.38;;
65206;SDS011;58477;48.072;11.970;2023-02-15T04:47:25;142.60;;;13.80;;
65206;SDS011;58477;48.072;11.970;2023-02-15T04:49:50;136.57;;;12.75;;
65206;SDS011;58477;48.072;11.970;2023-02-15T04:52:16;175.77;;;13.93;;
65206;SDS011;58477;48.072;11.970;2023-02-15T04:54:45;24.05;;;12.52;;
65206;SDS011;58477;48.072;11.970;2023-02-15T04:57:10;39.05;;;11.85;;
65206;SDS011;58477;48.072;11.970;2023-02-15T04:59:36;32.50;;;10.63;;
65206;SDS011;58477;48.072;11.970;2023-02-15T05:02:01;29.67;;;11.00;;
65206;SDS011;58477;48.072;11.970;2023-02-15T05:04:27;36.05;;;12.02;;
65206;SDS011;58477;48.072;11.970;2023-02-15T05:06:53;49.22;;;12.02;;
65206;SDS011;58477;48.072;11.970;2023-02-15T05:09:18;52.75;;;10.93;;
65206;SDS011;58477;48.072;11.970;2023-02-15T05:11:43;41.88;;;8.82;;
65206;SDS011;58477;48.072;11.970;2023-02-15T05:14:09;29.67;;;9.10;;
65206;SDS011;58477;48.072;11.970;2023-02-15T05:16:34;52.83;;;9.98;;
65206;SDS011;58477;48.072;11.970;2023-02-15T05:19:00;98.68;;;10.70;;
65206;SDS011;58477;48.072;11.970;2023-02-15T05:21:25;24.25;;;10.63;;
65206;SDS011;58477;48.072;11.970;2023-02-15T05:23:51;24.02;;;8.93;;
65206;SDS011;58477;48.072;11.970;2023-02-15T05:26:17;28.77;;;10.50;;
65206;SDS011;58477;48.072;11.970;2023-02-15T05:29:03;19.38;;;9.93;;
65206;SDS011;58477;48.072;11.970;2023-02-15T05:31:30;70.50;;;10.45;;
65206;SDS011;58477;48.072;11.970;2023-02-15T05:33:56;27.02;;;9.93;;
65206;SDS011;58477;48.072;11.970;2023-02-15T05:36:21;126.82;;;10.85;;
65206;SDS011;58477;48.072;11.970;2023-02-15T05:38:46;63.83;;;10.43;;
65206;SDS011;58477;48.072;11.970;2023-02-15T05:41:12;71.05;;;9.98;;
65206;SDS011;58477;48.072;11.970;2023-02-15T05:43:37;22.65;;;11.10;;
65206;SDS011;58477;48.072;11.970;2023-02-15T05:46:04;72.15;;;10.07;;
65206;SDS011;58477;48.072;11.970;2023-02-15T05:48:30;160.48;;;10.65;;
65206;SDS011;58477;48.072;11.970;2023-02-15T05:51:06;24.20;;;9.75;;
65206;SDS011;58477;48.072;11.970;2023-02-15T05:53:34;24.88;;;9.23;;
65206;SDS011;58477;48.072;11.970;2023-02-15T05:56:01;41.83;;;10.55;;
65206;SDS011;58477;48.072;11.970;2023-02-15T05:58:31;15.45;;;9.13;;
65206;SDS011;58477;48.072;11.970;2023-02-15T06:00:59;30.05;;;10.15;;
65206;SDS011;58477;48.072;11.970;2023-02-15T06:03:24;20.63;;;8.55;;
65206;SDS011;58477;48.072;11.970;2023-02-15T06:05:51;27.30;;;7.78;;
65206;SDS011;58477;48.072;11.970;2023-02-15T06:08:19;25.50;;;8.13;;
65206;SDS011;58477;48.072;11.970;2023-02-15T06:10:45;28.02;;;8.70;;
65206;SDS011;58477;48.072;11.970;2023-02-15T06:13:11;15.68;;;8.90;;
65206;SDS011;58477;48.072;11.970;2023-02-15T06:15:37;22.83;;;8.93;;
65206;SDS011;58477;48.072;11.970;2023-02-15T06:18:02;35.28;;;10.00;;
65206;SDS011;58477;48.072;11.970;2023-02-15T06:20:28;23.75;;;10.27;;
65206;SDS011;58477;48.072;11.970;2023-02-15T06:22:53;101.60;;;11.00;;
65206;SDS011;58477;48.072;11.970;2023-02-15T06:25:18;37.60;;;10.68;;
65206;SDS011;58477;48.072;11.970;2023-02-15T06:27:44;117.88;;;11.93;;
65206;SDS011;58477;48.072;11.970;2023-02-15T06:30:10;52.80;;;8.77;;
65206;SDS011;58477;48.072;11.970;2023-02-15T06:32:36;144.88;;;11.63;;
65206;SDS011;58477;48.072;11.970;2023-02-15T06:35:02;42.30;;;10.52;;
65206;SDS011;58477;48.072;11.970;2023-02-15T06:37:28;33.78;;;11.07;;
65206;SDS011;58477;48.072;11.970;2023-02-15T06:39:54;47.70;;;10.70;;
65206;SDS011;58477;48.072;11.970;2023-02-15T06:42:20;115.43;;;10.90;;
65206;SDS011;58477;48.072;11.970;2023-02-15T06:44:46;192.85;;;12.75;;
65206;SDS011;58477;48.072;11.970;2023-02-15T06:47:12;95.43;;;10.88;;
65206;SDS011;58477;48.072;11.970;2023-02-15T06:49:37;24.48;;;9.65;;
65206;SDS011;58477;48.072;11.970;2023-02-15T06:52:03;120.32;;;12.20;;
65206;SDS011;58477;48.072;11.970;2023-02-15T06:54:29;70.60;;;10.45;;
65206;SDS011;58477;48.072;11.970;2023-02-15T06:56:54;30.42;;;9.40;;
65206;SDS011;58477;48.072;11.970;2023-02-15T06:59:20;49.67;;;9.50;;
65206;SDS011;58477;48.072;11.970;2023-02-15T07:01:45;22.90;;;9.20;;
65206;SDS011;58477;48.072;11.970;2023-02-15T07:04:11;34.25;;;9.45;;
65206;SDS011;58477;48.072;11.970;2023-02-15T07:06:36;29.15;;;9.18;;
65206;SDS011;58477;48.072;11.970;2023-02-15T07:09:02;121.22;;;10.02;;
65206;SDS011;58477;48.072;11.970;2023-02-15T07:11:27;45.70;;;9.13;;
65206;SDS011;58477;48.072;11.970;2023-02-15T07:14:12;32.78;;;9.23;;
65206;SDS011;58477;48.072;11.970;2023-02-15T07:16:37;64.60;;;10.35;;
65206;SDS011;58477;48.072;11.970;2023-02-15T07:19:03;164.70;;;12.50;;
65206;SDS011;58477;48.072;11.970;2023-02-15T07:21:28;200.15;;;13.88;;
65206;SDS011;58477;48.072;11.970;2023-02-15T07:23:56;179.35;;;12.65;;
65206;SDS011;58477;48.072;11.970;2023-02-15T07:26:22;72.82;;;10.35;;
65206;SDS011;58477;48.072;11.970;2023-02-15T07:28:48;20.75;;;9.40;;
65206;SDS011;58477;48.072;11.970;2023-02-15T07:31:13;18.83;;;10.55;;
65206;SDS011;58477;48.072;11.970;2023-02-15T07:33:39;25.42;;;8.93;;
65206;SDS011;58477;48.072;11.970;2023-02-15T07:36:04;48.15;;;9.52;;
65206;SDS011;58477;48.072;11.970;2023-02-15T07:38:34;27.85;;;9.05;;
65206;SDS011;58477;48.072;11.970;2023-02-15T07:41:02;67.90;;;10.23;;
65206;SDS011;58477;48.072;11.970;2023-02-15T07:43:30;54.97;;;10.00;;
65206;SDS011;58477;48.072;11.970;2023-02-15T07:46:00;41.30;;;11.57;;
65206;SDS011;58477;48.072;11.970;2023-02-15T07:48:27;47.03;;;9.43;;
65206;SDS011;58477;48.072;11.970;2023-02-15T07:50:52;111.30;;;10.13;;
65206;SDS011;58477;48.072;11.970;2023-02-15T07:53:18;29.92;;;9.35;;
65206;SDS011;58477;48.072;11.970;2023-02-15T07:55:43;19.08;;;9.05;;
65206;SDS011;58477;48.072;11.970;2023-02-15T07:58:09;15.07;;;9.15;;
65206;SDS011;58477;48.072;11.970;2023-02-15T08:00:34;18.38;;;8.32;;
65206;SDS011;58477;48.072;11.970;2023-02-15T08:03:22;57.40;;;9.25;;
65206;SDS011;58477;48.072;11.970;2023-02-15T08:05:54;53.42;;;9.70;;
65206;SDS011;58477;48.072;11.970;2023-02-15T08:08:22;16.40;;;8.43;;
65206;SDS011;58477;48.072;11.970;2023-02-15T08:11:07;32.20;;;9.70;;
65206;SDS011;58477;48.072;11.970;2023-02-15T08:14:11;19.50;;;9.30;;
65206;SDS011;58477;48.072;11.970;2023-02-15T08:16:44;57.10;;;10.48;;
65206;SDS011;58477;48.072;11.970;2023-02-15T08:21:38;21.63;;;8.57;;
65206;SDS011;58477;48.072;11.970;2023-02-15T08:24:05;48.60;;;10.60;;
65206;SDS011;58477;48.072;11.970;2023-02-15T08:26:32;14.68;;;8.52;;
65206;SDS011;58477;48.072;11.970;2023-02-15T08:28:59;32.13;;;9.52;;
65206;SDS011;58477;48.072;11.970;2023-02-15T08:31:26;24.40;;;9.13;;
65206;SDS011;58477;48.072;11.970;2023-02-15T08:33:52;17.40;;;9.05;;
65206;SDS011;58477;48.072;11.970;2023-02-15T08:36:20;17.88;;;8.82;;
65206;SDS011;58477;48.072;11.970;2023-02-15T08:38:47;28.23;;;9.60;;
65206;SDS011;58477;48.072;11.970;2023-02-15T08:43:51;21.10;;;9.38;;
65206;SDS011;58477;48.072;11.970;2023-02-15T08:46:19;24.50;;;10.23;;
65206;SDS011;58477;48.072;11.970;2023-02-15T08:48:45;58.50;;;10.32;;
65206;SDS011;58477;48.072;11.970;2023-02-15T08:51:12;33.40;;;10.98;;
65206;SDS011;58477;48.072;11.970;2023-02-15T08:53:43;20.15;;;10.60;;
65206;SDS011;58477;48.072;11.970;2023-02-15T08:56:11;32.92;;;8.38;;
65206;SDS011;58477;48.072;11.970;2023-02-15T08:58:36;20.52;;;9.07;;
65206;SDS011;58477;48.072;11.970;2023-02-15T09:01:09;15.02;;;9.13;;
65206;SDS011;58477;48.072;11.970;2023-02-15T09:06:00;18.73;;;8.50;;
65206;SDS011;58477;48.072;11.970;2023-02-15T09:08:27;22.88;;;8.63;;
65206;SDS011;58477;48.072;11.970;2023-02-15T09:10:53;19.33;;;8.43;;
65206;SDS011;58477;48.072;11.970;2023-02-15T09:13:19;26.17;;;8.88;;
65206;SDS011;58477;48.072;11.970;2023-02-15T09:15:46;27.60;;;8.65;;
65206;SDS011;58477;48.072;11.970;2023-02-15T09:18:11;12.10;;;7.50;;
65206;SDS011;58477;48.072;11.970;2023-02-15T09:20:42;13.18;;;7.43;;
65206;SDS011;58477;48.072;11.970;2023-02-15T09:23:09;14.20;;;9.00;;
65206;SDS011;58477;48.072;11.970;2023-02-15T09:25:34;15.68;;;8.90;;
65206;SDS011;58477;48.072;11.970;2023-02-15T09:28:00;18.20;;;10.00;;
65206;SDS011;58477;48.072;11.970;2023-02-15T09:30:25;16.88;;;9.43;;
65206;SDS011;58477;48.072;11.970;2023-02-15T09:32:50;16.23;;;9.90;;
65206;SDS011;58477;48.072;11.970;2023-02-15T09:35:16;13.02;;;8.98;;
65206;SDS011;58477;48.072;11.970;2023-02-15T09:37:42;13.07;;;8.93;;
65206;SDS011;58477;48.072;11.970;2023-02-15T09:40:07;15.57;;;8.35;;
65206;SDS011;58477;48.072;11.970;2023-02-15T09:42:40;14.23;;;9.38;;
65206;SDS011;58477;48.072;11.970;2023-02-15T09:45:54;14.93;;;9.00;;
65206;SDS011;58477;48.072;11.970;2023-02-15T09:48:41;15.40;;;9.05;;
65206;SDS011;58477;48.072;11.970;2023-02-15T09:56:58;13.40;;;8.65;;
65206;SDS011;58477;48.072;11.970;2023-02-15T09:59:49;14.70;;;9.02;;
65206;SDS011;58477;48.072;11.970;2023-02-15T10:14:31;13.07;;;8.45;;
65206;SDS011;58477;48.072;11.970;2023-02-15T10:17:04;12.77;;;8.63;;
65206;SDS011;58477;48.072;11.970;2023-02-15T10:19:35;12.13;;;7.60;;
65206;SDS011;58477;48.072;11.970;2023-02-15T10:22:22;14.18;;;8.85;;
65206;SDS011;58477;48.072;11.970;2023-02-15T10:27:24;10.18;;;7.45;;
65206;SDS011;58477;48.072;11.970;2023-02-15T10:30:08;12.80;;;8.02;;
65206;SDS011;58477;48.072;11.970;2023-02-15T10:35:37;12.77;;;8.32;;
65206;SDS011;58477;48.072;11.970;2023-02-15T10:46:22;13.35;;;8.07;;
65206;SDS011;58477;48.072;11.970;2023-02-15T10:54:16;8.70;;;7.25;;
65206;SDS011;58477;48.072;11.970;2023-02-15T11:02:12;13.35;;;9.00;;
65206;SDS011;58477;48.072;11.970;2023-02-15T11:05:16;11.60;;;8.70;;
65206;SDS011;58477;48.072;11.970;2023-02-15T11:07:45;12.73;;;8.80;;
65206;SDS011;58477;48.072;11.970;2023-02-15T11:10:28;13.05;;;8.52;;
65206;SDS011;58477;48.072;11.970;2023-02-15T11:12:55;11.52;;;8.10;;
65206;SDS011;58477;48.072;11.970;2023-02-15T11:15:29;13.77;;;8.68;;
65206;SDS011;58477;48.072;11.970;2023-02-15T11:18:21;13.18;;;8.02;;
65206;SDS011;58477;48.072;11.970;2023-02-15T11:20:58;11.05;;;7.85;;
65206;SDS011;58477;48.072;11.970;2023-02-15T11:23:43;12.93;;;8.38;;
65206;SDS011;58477;48.072;11.970;2023-02-15T11:26:53;16.45;;;7.97;;
65206;SDS011;58477;48.072;11.970;2023-02-15T11:29:01;12.85;;;8.40;;
65206;SDS011;58477;48.072;11.970;2023-02-15T11:31:41;12.35;;;8.23;;
65206;SDS011;58477;48.072;11.970;2023-02-15T11:34:15;12.45;;;8.27;;
65206;SDS011;58477;48.072;11.970;2023-02-15T11:36:42;16.52;;;8.98;;
65206;SDS011;58477;48.072;11.970;2023-02-15T11:39:09;13.38;;;8.57;;
65206;SDS011;58477;48.072;11.970;2023-02-15T11:41:40;12.93;;;8.52;;
65206;SDS011;58477;48.072;11.970;2023-02-15T11:44:20;12.38;;;8.60;;
65206;SDS011;58477;48.072;11.970;2023-02-15T11:47:10;13.10;;;8.40;;
65206;SDS011;58477;48.072;11.970;2023-02-15T11:49:37;13.02;;;9.02;;
65206;SDS011;58477;48.072;11.970;2023-02-15T11:52:07;12.88;;;9.02;;
65206;SDS011;58477;48.072;11.970;2023-02-15T11:54:37;14.07;;;9.10;;
65206;SDS011;58477;48.072;11.970;2023-02-15T11:57:26;13.00;;;9.18;;
65206;SDS011;58477;48.072;11.970;2023-02-15T12:02:33;14.27;;;8.45;;
65206;SDS011;58477;48.072;11.970;2023-02-15T12:05:17;12.63;;;7.97;;
65206;SDS011;58477;48.072;11.970;2023-02-15T12:08:03;14.05;;;8.05;;
65206;SDS011;58477;48.072;11.970;2023-02-15T12:10:46;10.53;;;7.87;;
65206;SDS011;58477;48.072;11.970;2023-02-15T12:13:27;10.10;;;7.90;;
65206;SDS011;58477;48.072;11.970;2023-02-15T12:15:54;12.35;;;7.88;;
65206;SDS011;58477;48.072;11.970;2023-02-15T12:18:33;9.40;;;8.00;;
65206;SDS011;58477;48.072;11.970;2023-02-15T12:21:00;12.52;;;9.35;;
65206;SDS011;58477;48.072;11.970;2023-02-15T12:23:30;12.18;;;8.77;;
65206;SDS011;58477;48.072;11.970;2023-02-15T12:25:57;15.63;;;8.63;;
65206;SDS011;58477;48.072;11.970;2023-02-15T12:28:25;15.27;;;10.40;;
65206;SDS011;58477;48.072;11.970;2023-02-15T12:30:56;19.05;;;10.07;;
65206;SDS011;58477;48.072;11.970;2023-02-15T12:33:30;13.25;;;9.98;;
65206;SDS011;58477;48.072;11.970;2023-02-15T12:36:04;17.13;;;10.77;;
65206;SDS011;58477;48.072;11.970;2023-02-15T12:38:36;15.63;;;11.52;;
65206;SDS011;58477;48.072;11.970;2023-02-15T12:41:03;15.73;;;10.68;;
65206;SDS011;58477;48.072;11.970;2023-02-15T12:43:46;15.73;;;11.00;;
65206;SDS011;58477;48.072;11.970;2023-02-15T12:46:24;15.88;;;11.10;;
65206;SDS011;58477;48.072;11.970;2023-02-15T12:49:18;14.45;;;10.27;;
65206;SDS011;58477;48.072;11.970;2023-02-15T12:51:51;14.95;;;10.05;;
65206;SDS011;58477;48.072;11.970;2023-02-15T12:56:47;16.83;;;10.70;;
65206;SDS011;58477;48.072;11.970;2023-02-15T12:59:13;16.65;;;10.38;;
65206;SDS011;58477;48.072;11.970;2023-02-15T13:01:40;16.25;;;10.57;;
65206;SDS011;58477;48.072;11.970;2023-02-15T13:04:28;18.63;;;11.45;;
65206;SDS011;58477;48.072;11.970;2023-02-15T13:06:57;17.58;;;10.95;;
65206;SDS011;58477;48.072;11.970;2023-02-15T13:12:09;15.38;;;10.52;;
65206;SDS011;58477;48.072;11.970;2023-02-15T13:14:42;18.98;;;11.35;;
65206;SDS011;58477;48.072;11.970;2023-02-15T13:17:10;14.85;;;10.73;;
65206;SDS011;58477;48.072;11.970;2023-02-15T13:22:14;19.05;;;11.52;;
65206;SDS011;58477;48.072;11.970;2023-02-15T13:24:48;15.73;;;10.75;;
65206;SDS011;58477;48.072;11.970;2023-02-15T13:27:21;14.77;;;10.30;;
65206;SDS011;58477;48.072;11.970;2023-02-15T13:29:56;17.50;;;10.45;;
65206;SDS011;58477;48.072;11.970;2023-02-15T13:32:25;15.70;;;11.07;;
65206;SDS011;58477;48.072;11.970;2023-02-15T13:34:56;15.75;;;10.63;;
65206;SDS011;58477;48.072;11.970;2023-02-15T13:40:08;17.10;;;10.77;;
65206;SDS011;58477;48.072;11.970;2023-02-15T13:42:41;16.70;;;11.00;;
65206;SDS011;58477;48.072;11.970;2023-02-15T13:59:00;17.42;;;10.48;;
65206;SDS011;58477;48.072;11.970;2023-02-15T14:01:45;16.08;;;10.00;;
65206;SDS011;58477;48.072;11.970;2023-02-15T14:04:17;15.60;;;10.68;;
65206;SDS011;58477;48.072;11.970;2023-02-15T14:18:00;17.48;;;11.30;;
65206;SDS011;58477;48.072;11.970;2023-02-15T14:20:34;15.68;;;10.55;;
65206;SDS011;58477;48.072;11.970;2023-02-15T14:26:00;13.65;;;10.07;;
65206;SDS011;58477;48.072;11.970;2023-02-15T14:28:37;16.48;;;9.60;;
65206;SDS011;58477;48.072;11.970;2023-02-15T14:31:13;16.05;;;10.27;;
65206;SDS011;58477;48.072;11.970;2023-02-15T14:33:41;17.15;;;10.68;;
65206;SDS011;58477;48.072;11.970;2023-02-15T14:36:13;14.63;;;10.68;;
65206;SDS011;58477;48.072;11.970;2023-02-15T14:44:13;15.43;;;10.35;;
65206;SDS011;58477;48.072;11.970;2023-02-15T14:46:48;16.75;;;11.48;;
65206;SDS011;58477;48.072;11.970;2023-02-15T14:49:22;14.85;;;10.73;;
65206;SDS011;58477;48.072;11.970;2023-02-15T14:57:29;16.38;;;9.90;;
65206;SDS011;58477;48.072;11.970;2023-02-15T15:02:18;14.23;;;10.70;;
65206;SDS011;58477;48.072;11.970;2023-02-15T15:12:55;15.15;;;10.30;;
65206;SDS011;58477;48.072;11.970;2023-02-15T15:17:53;15.93;;;10.20;;
65206;SDS011;58477;48.072;11.970;2023-02-15T15:25:44;14.10;;;9.88;;
65206;SDS011;58477;48.072;11.970;2023-02-15T15:28:52;19.02;;;10.27;;
65206;SDS011;58477;48.072;11.970;2023-02-15T15:39:39;19.73;;;12.70;;
65206;SDS011;58477;48.072;11.970;2023-02-15T15:42:31;16.13;;;11.27;;
65206;SDS011;58477;48.072;11.970;2023-02-15T15:50:44;14.75;;;10.10;;
65206;SDS011;58477;48.072;11.970;2023-02-15T15:53:16;14.02;;;9.23;;
65206;SDS011;58477;48.072;11.970;2023-02-15T15:55:46;16.00;;;10.80;;
65206;SDS011;58477;48.072;11.970;2023-02-15T15:58:14;15.57;;;10.50;;
65206;SDS011;58477;48.072;11.970;2023-02-15T16:03:20;15.95;;;10.18;;
65206;SDS011;58477;48.072;11.970;2023-02-15T16:05:48;13.57;;;9.70;;
65206;SDS011;58477;48.072;11.970;2023-02-15T16:08:26;15.75;;;10.50;;
65206;SDS011;58477;48.072;11.970;2023-02-15T16:10:57;13.98;;;9.52;;
65206;SDS011;58477;48.072;11.970;2023-02-15T16:13:23;17.00;;;10.35;;
65206;SDS011;58477;48.072;11.970;2023-02-15T16:15:51;20.13;;;12.45;;
65206;SDS011;58477;48.072;11.970;2023-02-15T16:18:22;17.88;;;11.35;;
65206;SDS011;58477;48.072;11.970;2023-02-15T16:20:52;18.35;;;12.57;;
65206;SDS011;58477;48.072;11.970;2023-02-15T16:28:56;23.20;;;12.38;;
65206;SDS011;58477;48.072;11.970;2023-02-15T16:31:21;17.88;;;11.63;;
65206;SDS011;58477;48.072;11.970;2023-02-15T16:33:47;20.77;;;12.57;;
65206;SDS011;58477;48.072;11.970;2023-02-15T16:41:30;18.20;;;11.63;;
65206;SDS011;58477;48.072;11.970;2023-02-15T16:43:59;18.02;;;11.60;;
65206;SDS011;58477;48.072;11.970;2023-02-15T16:46:35;22.35;;;12.07;;
65206;SDS011;58477;48.072;11.970;2023-02-15T16:49:14;18.38;;;12.60;;
65206;SDS011;58477;48.072;11.970;2023-02-15T16:51:45;26.35;;;13.70;;
65206;SDS011;58477;48.072;11.970;2023-02-15T16:54:21;19.17;;;12.60;;
65206;SDS011;58477;48.072;11.970;2023-02-15T16:56:48;22.25;;;13.80;;
65206;SDS011;58477;48.072;11.970;2023-02-15T17:02:05;25.27;;;15.80;;
65206;SDS011;58477;48.072;11.970;2023-02-15T17:04:38;29.50;;;15.70;;
65206;SDS011;58477;48.072;11.970;2023-02-15T17:09:40;20.98;;;14.63;;
65206;SDS011;58477;48.072;11.970;2023-02-15T17:12:35;30.27;;;17.05;;
65206;SDS011;58477;48.072;11.970;2023-02-15T17:18:16;59.45;;;30.30;;
65206;SDS011;58477;48.072;11.970;2023-02-15T17:20:45;66.75;;;34.72;;
65206;SDS011;58477;48.072;11.970;2023-02-15T17:25:57;30.50;;;18.92;;
65206;SDS011;58477;48.072;11.970;2023-02-15T17:28:26;31.02;;;18.17;;
65206;SDS011;58477;48.072;11.970;2023-02-15T17:30:54;23.55;;;14.68;;
65206;SDS011;58477;48.072;11.970;2023-02-15T17:36:01;21.55;;;14.10;;
65206;SDS011;58477;48.072;11.970;2023-02-15T17:38:37;22.25;;;14.45;;
65206;SDS011;58477;48.072;11.970;2023-02-15T17:41:04;23.17;;;14.32;;
65206;SDS011;58477;48.072;11.970;2023-02-15T17:43:30;21.08;;;14.27;;
65206;SDS011;58477;48.072;11.970;2023-02-15T17:45:56;22.48;;;14.18;;
65206;SDS011;58477;48.072;11.970;2023-02-15T17:48:23;23.20;;;14.27;;
65206;SDS011;58477;48.072;11.970;2023-02-15T17:51:00;22.63;;;13.13;;
65206;SDS011;58477;48.072;11.970;2023-02-15T17:53:27;20.52;;;14.20;;
65206;SDS011;58477;48.072;11.970;2023-02-15T17:55:52;23.75;;;13.40;;